createdAt,value
2018-03-08T00:00:59.315Z,64.37
2018-03-08T00:03:27.905Z,69.97
2018-03-08T00:05:56.418Z,63.73
2018-03-08T00:08:24.817Z,67.90
2018-03-08T00:10:53.135Z,61.87
2018-03-08T00:13:21.656Z,62.10
2018-03-08T00:15:50.230Z,57.10
2018-03-08T00:18:17.825Z,60.23
2018-03-08T00:20:46.503Z,59.53
2018-03-08T00:23:14.103Z,63.40
2018-03-08T00:25:42.542Z,70.10
2018-03-08T00:28:11.103Z,65.30
2018-03-08T00:30:39.712Z,60.87
2018-03-08T00:33:07.387Z,58.90
2018-03-08T00:35:34.997Z,60.20
2018-03-08T00:38:03.398Z,58.37
2018-03-08T00:40:31.082Z,61.93
2018-03-08T00:42:58.690Z,57.97
2018-03-08T00:45:27.430Z,63.13
2018-03-08T00:47:55.061Z,67.57
2018-03-08T00:50:22.752Z,64.17
2018-03-08T00:52:51.241Z,64.47
2018-03-08T00:55:18.843Z,70.60
2018-03-08T00:57:46.537Z,63.27
2018-03-08T01:00:14.131Z,65.00
2018-03-08T01:02:41.975Z,63.77
2018-03-08T01:05:10.570Z,57.27
2018-03-08T01:07:38.242Z,60.73
2018-03-08T01:10:05.886Z,58.90
2018-03-08T01:12:34.386Z,59.10
2018-03-08T01:15:02.151Z,55.53
2018-03-08T01:17:30.572Z,55.77
2018-03-08T01:19:58.265Z,61.27
2018-03-08T01:22:26.771Z,62.53
2018-03-08T01:24:54.450Z,66.40
2018-03-08T01:27:22.087Z,59.38
2018-03-08T01:29:49.766Z,59.13
2018-03-08T01:32:17.430Z,62.40
2018-03-08T01:34:45.030Z,65.10
2018-03-08T01:37:12.731Z,58.60
2018-03-08T01:39:41.318Z,67.20
2018-03-08T01:42:09.003Z,70.57
2018-03-08T01:44:37.318Z,59.87
2018-03-08T01:47:05.015Z,58.10
2018-03-08T01:49:32.608Z,56.97
2018-03-08T01:52:11.906Z,69.20
2018-03-08T01:54:39.508Z,64.90
2018-03-08T01:57:07.306Z,69.40
2018-03-08T01:59:35.136Z,65.23
2018-03-08T02:02:02.759Z,63.03
2018-03-08T02:04:30.463Z,57.60
2018-03-08T02:06:58.226Z,58.87
2018-03-08T02:09:25.825Z,57.97
2018-03-08T02:11:53.434Z,56.07
2018-03-08T02:14:21.114Z,56.77
2018-03-08T02:16:48.805Z,57.80
2018-03-08T02:19:16.415Z,56.47
2018-03-08T02:21:44.094Z,59.63
2018-03-08T02:24:11.693Z,59.77
2018-03-08T02:26:39.293Z,63.22
2018-03-08T02:29:06.986Z,65.60
2018-03-08T02:31:34.590Z,61.90
2018-03-08T02:34:02.273Z,60.35
2018-03-08T02:36:29.879Z,66.20
2018-03-08T02:38:57.474Z,59.43
2018-03-08T02:41:25.073Z,62.77
2018-03-08T02:43:52.673Z,67.27
2018-03-08T02:46:20.292Z,67.93
2018-03-08T02:48:47.982Z,64.63
2018-03-08T02:51:15.754Z,70.28
2018-03-08T02:53:43.443Z,64.22
2018-03-08T02:56:11.147Z,65.23
2018-03-08T02:58:38.822Z,64.75
2018-03-08T03:01:06.508Z,65.68
2018-03-08T03:03:34.368Z,64.70
2018-03-08T03:06:01.974Z,65.97
2018-03-08T03:08:29.670Z,70.03
2018-03-08T03:10:57.351Z,73.43
2018-03-08T03:13:24.951Z,75.10
2018-03-08T03:15:52.551Z,75.87
2018-03-08T03:18:20.154Z,74.35
2018-03-08T03:20:48.008Z,70.57
2018-03-08T03:23:15.631Z,81.50
2018-03-08T03:25:43.315Z,76.40
2018-03-08T03:28:10.918Z,74.55
2018-03-08T03:30:38.712Z,72.63
2018-03-08T03:33:06.397Z,74.55
2018-03-08T03:35:34.083Z,74.85
2018-03-08T03:38:01.758Z,73.97
2018-03-08T03:40:29.445Z,68.37
2018-03-08T03:42:57.055Z,71.50
2018-03-08T03:45:24.649Z,69.72
2018-03-08T03:47:52.247Z,68.90
2018-03-08T03:50:20.478Z,72.95
2018-03-08T03:52:48.077Z,71.12
2018-03-08T03:55:15.684Z,73.43
2018-03-08T03:57:43.278Z,68.00
2018-03-08T04:00:10.877Z,75.28
2018-03-08T04:02:38.484Z,69.07
2018-03-08T04:05:06.076Z,65.32
2018-03-08T04:07:33.685Z,65.57
2018-03-08T04:10:01.369Z,61.87
2018-03-08T04:12:28.965Z,69.68
2018-03-08T04:14:56.591Z,67.63
2018-03-08T04:17:24.359Z,62.60
2018-03-08T04:19:52.223Z,65.73
2018-03-08T04:22:19.959Z,69.50
2018-03-08T04:24:47.680Z,67.87
2018-03-08T04:27:15.294Z,69.70
2018-03-08T04:29:42.976Z,70.03
2018-03-08T04:32:10.574Z,64.73
2018-03-08T04:34:38.274Z,63.50
2018-03-08T04:37:05.964Z,63.30
2018-03-08T04:39:33.644Z,61.87
2018-03-08T04:42:01.333Z,59.97
2018-03-08T04:44:28.956Z,63.27
2018-03-08T04:46:56.691Z,65.23
2018-03-08T04:49:24.387Z,61.80
2018-03-08T04:51:52.064Z,59.57
2018-03-08T04:54:19.786Z,57.47
2018-03-08T04:56:47.450Z,57.50
2018-03-08T04:59:15.319Z,56.33
2018-03-08T05:01:43.107Z,55.03
2018-03-08T05:04:10.782Z,53.33
2018-03-08T05:06:38.471Z,57.37
2018-03-08T05:09:06.169Z,53.67
2018-03-08T05:11:33.859Z,54.20
2018-03-08T05:14:01.538Z,50.83
2018-03-08T05:16:29.268Z,50.63
2018-03-08T05:18:56.960Z,49.50
2018-03-08T05:21:25.298Z,50.30
2018-03-08T05:23:53.005Z,44.97
2018-03-08T05:26:20.690Z,46.30
2018-03-08T05:28:48.391Z,42.93
2018-03-08T05:31:16.188Z,42.57
2018-03-08T05:33:43.870Z,39.90
2018-03-08T05:36:11.550Z,44.90
2018-03-08T05:38:39.238Z,42.70
2018-03-08T05:41:06.936Z,38.80
2018-03-08T05:43:34.624Z,39.67
2018-03-08T05:46:02.312Z,35.30
2018-03-08T05:48:30.007Z,35.67
2018-03-08T05:50:57.690Z,37.73
2018-03-08T05:53:25.289Z,36.83
2018-03-08T05:55:52.895Z,33.40
2018-03-08T05:58:20.580Z,35.33
2018-03-08T06:00:48.224Z,37.73
2018-03-08T06:03:15.876Z,36.83
2018-03-08T06:05:43.557Z,35.70
2018-03-08T06:08:11.161Z,35.20
2018-03-08T06:10:38.895Z,33.07
2018-03-08T06:13:06.761Z,33.13
2018-03-08T06:15:34.504Z,34.40
2018-03-08T06:18:02.318Z,33.50
2018-03-08T06:20:30.480Z,35.40
2018-03-08T06:22:58.124Z,35.43
2018-03-08T06:25:25.676Z,30.37
2018-03-08T06:27:53.226Z,33.10
2018-03-08T06:30:20.782Z,33.37
2018-03-08T06:32:48.330Z,33.00
2018-03-08T06:35:15.886Z,32.10
2018-03-08T06:37:43.467Z,32.00
2018-03-08T06:40:11.017Z,34.20
2018-03-08T06:42:38.614Z,29.83
2018-03-08T06:45:06.166Z,32.63
2018-03-08T06:47:33.710Z,32.97
2018-03-08T06:50:01.268Z,31.07
2018-03-08T06:52:28.821Z,33.73
2018-03-08T06:54:56.372Z,31.17
2018-03-08T06:57:23.926Z,32.73
2018-03-08T06:59:51.482Z,28.10
2018-03-08T07:02:19.045Z,27.50
2018-03-08T07:04:46.595Z,25.90
2018-03-08T07:07:14.141Z,24.70
2018-03-08T07:09:41.688Z,23.47
2018-03-08T07:12:09.235Z,23.17
2018-03-08T07:14:36.789Z,22.20
2018-03-08T07:17:04.351Z,18.47
2018-03-08T07:19:31.931Z,20.73
2018-03-08T07:21:59.483Z,18.43
2018-03-08T07:24:27.064Z,16.60
2018-03-08T07:26:54.609Z,16.03
2018-03-08T07:29:22.156Z,15.90
2018-03-08T07:31:49.716Z,15.17
2018-03-08T07:34:17.274Z,15.87
2018-03-08T07:36:44.827Z,17.63
2018-03-08T07:39:12.372Z,15.07
2018-03-08T07:41:39.927Z,14.70
2018-03-08T07:44:07.477Z,18.37
2018-03-08T07:46:35.033Z,14.63
2018-03-08T07:49:02.620Z,14.67
2018-03-08T07:51:30.176Z,16.20
2018-03-08T07:53:57.724Z,14.97
2018-03-08T07:56:25.279Z,13.83
2018-03-08T07:58:52.838Z,13.60
2018-03-08T08:01:20.419Z,14.80
2018-03-08T08:03:47.967Z,14.83
2018-03-08T08:06:27.489Z,13.57
2018-03-08T08:09:09.991Z,14.37
2018-03-08T08:11:37.580Z,14.50
2018-03-08T08:14:05.135Z,14.53
2018-03-08T08:16:32.692Z,13.30
2018-03-08T08:19:00.261Z,13.80
2018-03-08T08:21:27.817Z,13.80
2018-03-08T08:23:55.373Z,14.20
2018-03-08T08:26:22.924Z,15.70
2018-03-08T08:28:50.476Z,14.67
2018-03-08T08:31:18.027Z,15.03
2018-03-08T08:33:45.578Z,13.97
2018-03-08T08:36:13.128Z,15.77
2018-03-08T08:38:40.680Z,13.53
2018-03-08T08:41:08.234Z,14.20
2018-03-08T08:43:35.808Z,14.47
2018-03-08T08:46:03.361Z,12.73
2018-03-08T08:48:30.917Z,14.03
2018-03-08T08:50:58.510Z,13.47
2018-03-08T08:53:26.042Z,12.43
2018-03-08T08:55:53.641Z,13.00
2018-03-08T08:58:21.195Z,12.67
2018-03-08T09:00:48.750Z,12.00
2018-03-08T09:03:16.300Z,13.00
2018-03-08T09:05:43.846Z,13.73
2018-03-08T09:08:11.400Z,13.90
2018-03-08T09:10:38.950Z,13.83
2018-03-08T09:13:06.504Z,12.80
2018-03-08T09:15:34.056Z,12.60
2018-03-08T09:18:01.603Z,13.60
2018-03-08T09:20:29.159Z,11.67
2018-03-08T09:22:56.744Z,13.07
2018-03-08T09:25:24.290Z,13.93
2018-03-08T09:27:51.877Z,13.90
2018-03-08T09:30:19.901Z,13.67
2018-03-08T09:32:47.456Z,11.30
2018-03-08T09:35:15.012Z,12.10
2018-03-08T09:37:42.562Z,12.67
2018-03-08T09:40:10.112Z,12.40
2018-03-08T09:42:37.661Z,14.07
2018-03-08T09:45:05.216Z,12.63
2018-03-08T09:47:32.819Z,13.17
2018-03-08T09:50:00.375Z,13.67
2018-03-08T09:52:27.930Z,14.90
2018-03-08T09:54:55.480Z,12.23
2018-03-08T09:57:23.040Z,13.50
2018-03-08T09:59:50.594Z,12.73
2018-03-08T10:02:18.152Z,12.83
2018-03-08T10:04:45.704Z,12.87
2018-03-08T10:07:13.252Z,12.60
2018-03-08T10:09:40.805Z,13.30
2018-03-08T10:12:08.355Z,12.60
2018-03-08T10:14:35.903Z,12.77
2018-03-08T10:17:03.492Z,14.20
2018-03-08T10:19:31.040Z,11.30
2018-03-08T10:21:58.642Z,13.27
2018-03-08T10:24:26.194Z,15.10
2018-03-08T10:26:53.747Z,14.17
2018-03-08T10:29:21.308Z,14.20
2018-03-08T10:31:48.866Z,12.80
2018-03-08T10:34:16.422Z,13.33
2018-03-08T10:36:43.984Z,14.53
2018-03-08T10:41:45.321Z,14.77
2018-03-08T10:44:06.731Z,13.90
2018-03-08T10:46:34.278Z,13.70
2018-03-08T10:51:29.347Z,13.83
2018-03-08T10:53:56.890Z,13.40
2018-03-08T10:56:24.484Z,13.10
2018-03-08T10:58:52.041Z,13.13
2018-03-08T11:01:25.556Z,12.00
2018-03-08T11:03:55.035Z,12.90
2018-03-08T11:06:28.576Z,12.50
2018-03-08T11:08:56.134Z,13.57
2018-03-08T11:11:23.691Z,13.27
2018-03-08T11:13:51.934Z,12.10
2018-03-08T11:16:19.522Z,12.43
2018-03-08T11:18:47.072Z,13.00
2018-03-08T11:21:14.685Z,12.77
2018-03-08T11:23:42.239Z,14.27
2018-03-08T11:26:09.789Z,12.80
2018-03-08T11:28:37.350Z,13.20
2018-03-08T11:31:04.911Z,12.40
2018-03-08T11:33:32.460Z,13.60
2018-03-08T11:36:00.013Z,12.60
2018-03-08T11:38:27.558Z,12.20
2018-03-08T11:40:55.114Z,13.07
2018-03-08T11:43:22.669Z,14.70
2018-03-08T11:45:50.227Z,14.17
2018-03-08T11:48:17.778Z,14.63
2018-03-08T11:50:45.336Z,15.23
2018-03-08T11:53:12.889Z,15.03
2018-03-08T11:55:40.514Z,14.33
2018-03-08T11:58:08.021Z,14.67
2018-03-08T12:00:35.579Z,14.80
2018-03-08T12:03:03.134Z,13.80
2018-03-08T12:05:30.679Z,14.60
2018-03-08T12:07:58.232Z,14.57
2018-03-08T12:10:25.787Z,14.13
2018-03-08T12:12:53.350Z,15.20
2018-03-08T12:15:21.695Z,15.23
2018-03-08T12:17:49.243Z,14.57
2018-03-08T12:20:16.824Z,15.40
2018-03-08T12:22:44.407Z,15.57
2018-03-08T12:25:11.960Z,14.83
2018-03-08T12:27:39.520Z,16.63
2018-03-08T12:30:07.083Z,15.87
2018-03-08T12:32:34.637Z,18.33
2018-03-08T12:35:03.026Z,16.63
2018-03-08T12:37:30.624Z,17.93
2018-03-08T12:39:58.177Z,17.20
2018-03-08T12:42:25.728Z,17.40
2018-03-08T12:44:53.275Z,18.47
2018-03-08T12:47:20.828Z,16.13
2018-03-08T12:49:48.375Z,16.30
2018-03-08T12:52:15.928Z,16.70
2018-03-08T12:54:43.519Z,16.70
2018-03-08T12:57:11.067Z,17.90
2018-03-08T12:59:38.656Z,15.40
2018-03-08T13:02:06.210Z,16.70
2018-03-08T13:04:33.796Z,15.57
2018-03-08T13:07:01.385Z,11.77
2018-03-08T13:09:28.930Z,11.97
2018-03-08T13:11:56.482Z,11.63
2018-03-08T13:14:24.046Z,12.60
2018-03-08T13:16:51.632Z,12.77
2018-03-08T13:19:19.193Z,13.13
2018-03-08T13:21:46.743Z,14.40
2018-03-08T13:24:14.308Z,12.63
2018-03-08T13:26:41.903Z,12.30
2018-03-08T13:29:09.463Z,12.97
2018-03-08T13:31:37.040Z,13.23
2018-03-08T13:34:04.602Z,13.03
2018-03-08T13:36:32.195Z,12.40
2018-03-08T13:38:59.749Z,11.70
2018-03-08T13:41:27.338Z,11.33
2018-03-08T13:43:54.893Z,11.10
2018-03-08T13:46:22.488Z,9.40
2018-03-08T13:48:50.059Z,9.50
2018-03-08T13:51:17.617Z,9.97
2018-03-08T13:53:45.187Z,10.10
2018-03-08T13:56:12.733Z,8.87
2018-03-08T13:58:40.317Z,9.23
2018-03-08T14:01:07.858Z,9.13
2018-03-08T14:03:35.435Z,9.50
2018-03-08T14:06:02.988Z,8.73
2018-03-08T14:08:30.618Z,8.40
2018-03-08T14:10:58.159Z,7.80
2018-03-08T14:13:25.752Z,7.40
2018-03-08T14:15:53.305Z,7.27
2018-03-08T14:18:20.895Z,7.00
2018-03-08T14:20:48.451Z,8.53
2018-03-08T14:23:15.998Z,6.33
2018-03-08T14:25:43.560Z,7.73
2018-03-08T14:28:11.112Z,5.80
2018-03-08T14:30:38.660Z,5.83
2018-03-08T14:33:06.220Z,6.67
2018-03-08T14:35:33.771Z,5.70
2018-03-08T14:38:01.311Z,5.30
2018-03-08T14:40:28.867Z,5.80
2018-03-08T14:42:56.421Z,4.83
2018-03-08T14:45:23.973Z,5.63
2018-03-08T14:47:51.542Z,4.53
2018-03-08T14:50:20.429Z,5.30
2018-03-08T14:52:47.972Z,4.80
2018-03-08T14:55:15.523Z,4.70
2018-03-08T14:57:43.124Z,4.80
2018-03-08T15:00:10.678Z,4.00
2018-03-08T15:02:38.280Z,3.60
2018-03-08T15:05:05.823Z,3.87
2018-03-08T15:07:33.369Z,4.17
2018-03-08T15:10:00.919Z,3.20
2018-03-08T15:12:28.472Z,3.17
2018-03-08T15:14:56.016Z,2.90
2018-03-08T15:17:23.560Z,3.70
2018-03-08T15:19:51.115Z,3.10
2018-03-08T15:22:18.666Z,2.97
2018-03-08T15:24:46.209Z,2.53
2018-03-08T15:27:13.759Z,2.80
2018-03-08T15:29:41.327Z,2.10
2018-03-08T15:32:08.875Z,2.70
2018-03-08T15:34:36.420Z,2.77
2018-03-08T15:37:03.970Z,2.50
2018-03-08T15:39:31.516Z,2.60
2018-03-08T15:41:59.059Z,2.80
2018-03-08T15:44:26.600Z,2.63
2018-03-08T15:46:54.144Z,2.53
2018-03-08T15:49:21.734Z,2.83
2018-03-08T15:51:49.275Z,2.77
2018-03-08T15:54:16.890Z,2.43
2018-03-08T15:56:44.435Z,2.53
2018-03-08T15:59:11.996Z,2.90
2018-03-08T16:01:39.610Z,2.80
2018-03-08T16:04:07.197Z,2.43
2018-03-08T16:06:46.563Z,2.60
2018-03-08T16:12:12.842Z,2.77
2018-03-08T16:14:40.376Z,3.17
2018-03-08T16:17:07.919Z,3.50
2018-03-08T16:19:35.468Z,3.10
2018-03-08T16:22:03.047Z,3.00
2018-03-08T16:24:30.590Z,2.80
2018-03-08T16:26:58.169Z,3.67
2018-03-08T16:29:25.809Z,3.20
2018-03-08T16:31:53.335Z,4.20
2018-03-08T16:34:20.915Z,3.53
2018-03-08T16:36:48.455Z,3.33
2018-03-08T16:39:15.998Z,3.80
2018-03-08T16:41:43.589Z,3.33
2018-03-08T16:44:11.132Z,3.53
2018-03-08T16:46:38.714Z,3.60
2018-03-08T16:49:06.299Z,3.77
2018-03-08T16:51:33.847Z,3.60
2018-03-08T16:54:01.458Z,4.13
2018-03-08T16:56:29.027Z,3.77
2018-03-08T16:58:56.624Z,2.73
2018-03-08T17:01:24.167Z,2.97
2018-03-08T17:03:51.960Z,2.97
2018-03-08T17:06:19.500Z,3.27
2018-03-08T17:08:47.159Z,3.20
2018-03-08T17:11:14.702Z,3.30
2018-03-08T17:13:42.284Z,4.00
2018-03-08T17:16:09.822Z,3.90
2018-03-08T17:18:37.369Z,3.50
2018-03-08T17:21:04.932Z,4.10
2018-03-08T17:23:32.468Z,4.33
2018-03-08T17:26:00.008Z,4.22
2018-03-08T17:28:27.578Z,4.13
2018-03-08T17:30:55.162Z,4.67
2018-03-08T17:33:22.703Z,4.37
2018-03-08T17:35:50.289Z,4.13
2018-03-08T17:38:17.833Z,4.23
2018-03-08T17:40:45.446Z,4.30
2018-03-08T17:43:13.774Z,4.93
2018-03-08T17:45:41.364Z,4.27
2018-03-08T17:48:08.917Z,4.90
2018-03-08T17:50:36.452Z,4.67
2018-03-08T17:53:03.989Z,4.57
2018-03-08T17:55:31.571Z,4.70
2018-03-08T17:57:59.151Z,4.67
2018-03-08T18:00:27.721Z,4.40
2018-03-08T18:02:55.276Z,4.77
2018-03-08T18:05:22.845Z,4.63
2018-03-08T18:07:50.379Z,4.80
2018-03-08T18:10:17.919Z,5.07
2018-03-08T18:12:45.858Z,4.77
2018-03-08T18:15:13.391Z,4.13
2018-03-08T18:17:40.931Z,5.87
2018-03-08T18:20:08.523Z,3.77
2018-03-08T18:22:36.071Z,4.43
2018-03-08T18:25:03.608Z,4.37
2018-03-08T18:27:31.259Z,3.70
2018-03-08T18:29:58.799Z,4.40
2018-03-08T18:32:26.350Z,4.10
2018-03-08T18:34:53.923Z,3.90
2018-03-08T18:37:21.471Z,4.40
2018-03-08T18:39:49.012Z,4.23
2018-03-08T18:42:16.550Z,4.40
2018-03-08T18:44:44.088Z,4.40
2018-03-08T18:47:11.623Z,4.50
2018-03-08T18:49:39.162Z,4.53
2018-03-08T18:52:06.703Z,4.20
2018-03-08T18:54:34.279Z,5.10
2018-03-08T18:57:01.815Z,4.70
2018-03-08T18:59:29.395Z,5.77
2018-03-08T19:01:56.934Z,4.93
2018-03-08T19:04:24.514Z,4.80
2018-03-08T19:06:52.128Z,5.13
2018-03-08T19:09:19.667Z,4.60
2018-03-08T19:11:47.257Z,4.13
2018-03-08T19:14:14.795Z,4.27
2018-03-08T19:16:42.342Z,4.10
2018-03-08T19:19:09.879Z,3.93
2018-03-08T19:21:37.418Z,4.30
2018-03-08T19:24:04.967Z,4.30
2018-03-08T19:26:32.517Z,3.93
2018-03-08T19:29:00.091Z,4.90
2018-03-08T19:31:28.614Z,4.40
2018-03-08T19:33:56.187Z,3.87
2018-03-08T19:36:23.728Z,4.67
2018-03-08T19:38:51.313Z,4.30
2018-03-08T19:41:18.902Z,5.97
2018-03-08T19:43:46.438Z,4.73
2018-03-08T19:46:13.989Z,4.30
2018-03-08T19:48:41.567Z,3.33
2018-03-08T19:51:09.102Z,4.23
2018-03-08T19:53:36.638Z,4.53
2018-03-08T19:56:04.186Z,3.90
2018-03-08T19:58:31.766Z,3.30
2018-03-08T20:00:59.310Z,3.77
2018-03-08T20:03:26.890Z,4.23
2018-03-08T20:05:54.428Z,3.97
2018-03-08T20:08:22.015Z,4.03
2018-03-08T20:10:49.559Z,3.57
2018-03-08T20:13:17.106Z,4.20
2018-03-08T20:15:44.643Z,3.90
2018-03-08T20:18:12.179Z,3.70
2018-03-08T20:20:40.705Z,4.27
2018-03-08T20:23:08.277Z,4.13
2018-03-08T20:25:35.869Z,4.20
2018-03-08T20:28:03.407Z,3.83
2018-03-08T20:30:30.947Z,4.03
2018-03-08T20:32:58.491Z,4.30
2018-03-08T20:35:26.050Z,4.00
2018-03-08T20:37:53.602Z,4.17
2018-03-08T20:40:21.138Z,4.33
2018-03-08T20:42:49.644Z,4.63
2018-03-08T20:45:17.184Z,4.80
2018-03-08T20:47:44.763Z,4.60
2018-03-08T20:50:12.302Z,4.60
2018-03-08T20:52:41.936Z,4.10
2018-03-08T20:55:09.470Z,3.93
2018-03-08T20:57:37.046Z,4.37
2018-03-08T21:00:04.604Z,4.47
2018-03-08T21:02:32.179Z,4.17
2018-03-08T21:04:59.715Z,4.23
2018-03-08T21:07:27.256Z,4.53
2018-03-08T21:09:55.090Z,4.10
2018-03-08T21:12:22.671Z,3.97
2018-03-08T21:14:50.256Z,4.43
2018-03-08T21:17:17.792Z,4.87
2018-03-08T21:19:45.370Z,3.90
2018-03-08T21:22:13.043Z,4.23
2018-03-08T21:24:40.618Z,4.30
2018-03-08T21:27:08.186Z,4.10
2018-03-08T21:29:35.720Z,4.13
2018-03-08T21:32:03.293Z,4.47
2018-03-08T21:34:30.875Z,3.63
2018-03-08T21:36:58.411Z,4.27
2018-03-08T21:39:26.878Z,4.00
2018-03-08T21:41:54.420Z,3.73
2018-03-08T21:44:21.954Z,4.20
2018-03-08T21:46:49.499Z,3.40
2018-03-08T21:49:17.031Z,3.50
2018-03-08T21:51:44.571Z,3.90
2018-03-08T21:54:12.136Z,3.20
2018-03-08T21:56:39.675Z,4.20
2018-03-08T21:59:07.251Z,4.27
2018-03-08T22:01:34.791Z,4.50
2018-03-08T22:04:02.387Z,3.90
2018-03-08T22:06:30.837Z,3.07
2018-03-08T22:08:58.386Z,3.90
2018-03-08T22:11:25.922Z,4.10
2018-03-08T22:13:53.491Z,3.70
2018-03-08T22:16:21.027Z,3.60
2018-03-08T22:18:48.564Z,4.27
2018-03-08T22:21:16.132Z,3.77
2018-03-08T22:23:43.667Z,4.23
2018-03-08T22:26:11.243Z,4.27
2018-03-08T22:28:38.787Z,5.97
2018-03-08T22:31:06.375Z,5.37
2018-03-08T22:33:33.911Z,5.77
2018-03-08T22:36:01.451Z,6.20
2018-03-08T22:38:28.999Z,6.57
2018-03-08T22:40:56.544Z,5.90
2018-03-08T22:43:24.078Z,5.00
2018-03-08T22:45:51.644Z,5.20
2018-03-08T22:48:19.188Z,5.77
2018-03-08T22:50:46.726Z,5.27
2018-03-08T22:53:14.266Z,6.17
2018-03-08T22:55:41.806Z,6.83
2018-03-08T22:58:09.345Z,5.70
2018-03-08T23:00:36.893Z,5.40
2018-03-08T23:03:10.140Z,5.97
2018-03-08T23:05:37.706Z,5.83
2018-03-08T23:08:11.305Z,5.43
2018-03-08T23:10:38.855Z,6.07
2018-03-08T23:13:06.398Z,6.10
2018-03-08T23:15:33.943Z,5.90
2018-03-08T23:18:02.362Z,5.60
2018-03-08T23:20:29.950Z,5.50
2018-03-08T23:22:57.490Z,5.60
2018-03-08T23:25:25.030Z,6.27
2018-03-08T23:31:09.608Z,6.53
2018-03-08T23:39:45.619Z,6.57
2018-03-08T23:45:22.873Z,5.63
2018-03-08T23:47:52.316Z,7.00
2018-03-08T23:56:07.810Z,8.07
2018-03-08T23:58:36.344Z,7.17
